sensor_id;sensor_type;location;lat;lon;timestamp;P1;durP1;ratioP1;P2;durP2;ratioP2
34978;SDS011;21185;50.978;13.720;2022-10-16T00:02:28;2.53;;;1.85;;
34978;SDS011;21185;50.978;13.720;2022-10-16T00:07:31;1.77;;;1.30;;
34978;SDS011;21185;50.978;13.720;2022-10-16T00:12:32;2.25;;;1.60;;
34978;SDS011;21185;50.978;13.720;2022-10-16T00:17:34;2.33;;;1.60;;
34978;SDS011;21185;50.978;13.720;2022-10-16T00:22:36;3.53;;;2.10;;
34978;SDS011;21185;50.978;13.720;2022-10-16T00:27:38;2.10;;;1.27;;
34978;SDS011;21185;50.978;13.720;2022-10-16T00:32:40;2.40;;;1.55;;
34978;SDS011;21185;50.978;13.720;2022-10-16T00:37:42;2.90;;;1.88;;
34978;SDS011;21185;50.978;13.720;2022-10-16T00:42:44;2.83;;;1.80;;
34978;SDS011;21185;50.978;13.720;2022-10-16T00:47:45;3.20;;;1.48;;
34978;SDS011;21185;50.978;13.720;2022-10-16T00:52:52;2.50;;;1.42;;
34978;SDS011;21185;50.978;13.720;2022-10-16T00:57:54;1.77;;;1.33;;
34978;SDS011;21185;50.978;13.720;2022-10-16T01:03:01;2.72;;;1.73;;
34978;SDS011;21185;50.978;13.720;2022-10-16T01:13:12;3.75;;;1.77;;
34978;SDS011;21185;50.978;13.720;2022-10-16T01:23:39;2.33;;;1.52;;
34978;SDS011;21185;50.978;13.720;2022-10-16T01:28:49;2.53;;;1.52;;
34978;SDS011;21185;50.978;13.720;2022-10-16T01:33:59;2.38;;;1.48;;
34978;SDS011;21185;50.978;13.720;2022-10-16T01:39:06;11.70;;;1.35;;
34978;SDS011;21185;50.978;13.720;2022-10-16T01:44:33;2.42;;;1.20;;
34978;SDS011;21185;50.978;13.720;2022-10-16T01:49:36;2.33;;;1.23;;
34978;SDS011;21185;50.978;13.720;2022-10-16T01:54:40;1.40;;;0.98;;
34978;SDS011;21185;50.978;13.720;2022-10-16T01:59:49;3.05;;;1.10;;
34978;SDS011;21185;50.978;13.720;2022-10-16T02:04:56;2.55;;;1.08;;
34978;SDS011;21185;50.978;13.720;2022-10-16T02:10:02;1.60;;;1.05;;
34978;SDS011;21185;50.978;13.720;2022-10-16T02:15:04;1.00;;;0.80;;
34978;SDS011;21185;50.978;13.720;2022-10-16T02:20:07;2.33;;;1.27;;
34978;SDS011;21185;50.978;13.720;2022-10-16T02:25:15;1.13;;;0.93;;
34978;SDS011;21185;50.978;13.720;2022-10-16T02:30:25;1.63;;;1.08;;
34978;SDS011;21185;50.978;13.720;2022-10-16T02:35:34;2.25;;;1.33;;
34978;SDS011;21185;50.978;13.720;2022-10-16T02:40:37;1.98;;;1.15;;
34978;SDS011;21185;50.978;13.720;2022-10-16T02:45:39;2.15;;;1.45;;
34978;SDS011;21185;50.978;13.720;2022-10-16T02:50:42;2.75;;;1.67;;
34978;SDS011;21185;50.978;13.720;2022-10-16T02:55:44;3.88;;;1.90;;
34978;SDS011;21185;50.978;13.720;2022-10-16T03:00:46;3.25;;;2.10;;
34978;SDS011;21185;50.978;13.720;2022-10-16T03:05:47;3.22;;;2.40;;
34978;SDS011;21185;50.978;13.720;2022-10-16T03:10:50;5.35;;;2.65;;
34978;SDS011;21185;50.978;13.720;2022-10-16T03:15:52;4.93;;;2.58;;
34978;SDS011;21185;50.978;13.720;2022-10-16T03:20:54;3.63;;;1.50;;
34978;SDS011;21185;50.978;13.720;2022-10-16T03:25:56;2.70;;;1.88;;
34978;SDS011;21185;50.978;13.720;2022-10-16T03:30:58;4.53;;;2.10;;
34978;SDS011;21185;50.978;13.720;2022-10-16T03:36:00;2.72;;;1.90;;
34978;SDS011;21185;50.978;13.720;2022-10-16T03:41:01;6.55;;;1.88;;
34978;SDS011;21185;50.978;13.720;2022-10-16T03:46:05;4.68;;;1.80;;
34978;SDS011;21185;50.978;13.720;2022-10-16T03:51:07;3.03;;;1.67;;
34978;SDS011;21185;50.978;13.720;2022-10-16T03:56:09;2.83;;;1.75;;
34978;SDS011;21185;50.978;13.720;2022-10-16T04:01:11;1.58;;;1.25;;
34978;SDS011;21185;50.978;13.720;2022-10-16T04:06:13;2.88;;;1.58;;
34978;SDS011;21185;50.978;13.720;2022-10-16T04:11:15;2.58;;;1.45;;
34978;SDS011;21185;50.978;13.720;2022-10-16T04:16:16;2.38;;;1.33;;
34978;SDS011;21185;50.978;13.720;2022-10-16T04:21:18;1.10;;;0.95;;
34978;SDS011;21185;50.978;13.720;2022-10-16T04:26:20;1.13;;;0.70;;
34978;SDS011;21185;50.978;13.720;2022-10-16T04:31:22;1.15;;;0.82;;
34978;SDS011;21185;50.978;13.720;2022-10-16T04:36:24;1.60;;;1.00;;
34978;SDS011;21185;50.978;13.720;2022-10-16T04:41:29;2.05;;;0.93;;
34978;SDS011;21185;50.978;13.720;2022-10-16T04:46:31;1.13;;;0.77;;
34978;SDS011;21185;50.978;13.720;2022-10-16T04:51:33;1.40;;;0.90;;
34978;SDS011;21185;50.978;13.720;2022-10-16T04:56:35;0.90;;;0.60;;
34978;SDS011;21185;50.978;13.720;2022-10-16T05:01:44;2.65;;;0.70;;
34978;SDS011;21185;50.978;13.720;2022-10-16T05:06:47;5.32;;;0.90;;
34978;SDS011;21185;50.978;13.720;2022-10-16T05:11:49;8.13;;;1.30;;
34978;SDS011;21185;50.978;13.720;2022-10-16T05:16:51;1.20;;;0.98;;
34978;SDS011;21185;50.978;13.720;2022-10-16T05:21:53;1.33;;;1.20;;
34978;SDS011;21185;50.978;13.720;2022-10-16T05:26:55;1.45;;;1.10;;
34978;SDS011;21185;50.978;13.720;2022-10-16T05:31:57;3.67;;;1.30;;
34978;SDS011;21185;50.978;13.720;2022-10-16T05:36:59;4.00;;;1.80;;
34978;SDS011;21185;50.978;13.720;2022-10-16T05:42:01;2.08;;;1.42;;
34978;SDS011;21185;50.978;13.720;2022-10-16T05:47:02;2.58;;;1.50;;
34978;SDS011;21185;50.978;13.720;2022-10-16T05:52:04;2.50;;;1.67;;
34978;SDS011;21185;50.978;13.720;2022-10-16T05:57:06;4.18;;;1.70;;
34978;SDS011;21185;50.978;13.720;2022-10-16T06:02:11;3.17;;;2.13;;
34978;SDS011;21185;50.978;13.720;2022-10-16T06:07:15;3.03;;;1.55;;
34978;SDS011;21185;50.978;13.720;2022-10-16T06:12:17;2.38;;;1.70;;
34978;SDS011;21185;50.978;13.720;2022-10-16T06:17:19;5.70;;;1.70;;
34978;SDS011;21185;50.978;13.720;2022-10-16T06:22:21;6.88;;;1.95;;
34978;SDS011;21185;50.978;13.720;2022-10-16T06:27:23;5.50;;;1.30;;
34978;SDS011;21185;50.978;13.720;2022-10-16T06:32:25;2.28;;;1.40;;
34978;SDS011;21185;50.978;13.720;2022-10-16T06:37:28;1.98;;;1.35;;
34978;SDS011;21185;50.978;13.720;2022-10-16T06:42:30;2.13;;;1.40;;
34978;SDS011;21185;50.978;13.720;2022-10-16T06:47:33;2.10;;;1.45;;
34978;SDS011;21185;50.978;13.720;2022-10-16T06:52:35;3.55;;;1.00;;
34978;SDS011;21185;50.978;13.720;2022-10-16T06:57:36;3.67;;;0.70;;
34978;SDS011;21185;50.978;13.720;2022-10-16T07:02:38;1.08;;;0.80;;
34978;SDS011;21185;50.978;13.720;2022-10-16T07:07:40;0.82;;;0.50;;
34978;SDS011;21185;50.978;13.720;2022-10-16T07:12:42;2.80;;;0.45;;
34978;SDS011;21185;50.978;13.720;2022-10-16T07:17:46;0.47;;;0.40;;
34978;SDS011;21185;50.978;13.720;2022-10-16T07:22:48;1.30;;;0.68;;
34978;SDS011;21185;50.978;13.720;2022-10-16T07:27:50;0.50;;;0.40;;
34978;SDS011;21185;50.978;13.720;2022-10-16T07:32:52;0.40;;;0.40;;
34978;SDS011;21185;50.978;13.720;2022-10-16T07:37:53;0.70;;;0.32;;
34978;SDS011;21185;50.978;13.720;2022-10-16T07:42:55;1.88;;;0.30;;
34978;SDS011;21185;50.978;13.720;2022-10-16T07:47:57;0.30;;;0.30;;
34978;SDS011;21185;50.978;13.720;2022-10-16T07:52:59;0.50;;;0.32;;
34978;SDS011;21185;50.978;13.720;2022-10-16T07:58:01;0.60;;;0.47;;
34978;SDS011;21185;50.978;13.720;2022-10-16T08:03:03;0.60;;;0.40;;
34978;SDS011;21185;50.978;13.720;2022-10-16T08:08:05;1.40;;;0.82;;
34978;SDS011;21185;50.978;13.720;2022-10-16T08:13:07;2.58;;;1.52;;
34978;SDS011;21185;50.978;13.720;2022-10-16T08:18:10;2.67;;;1.60;;
34978;SDS011;21185;50.978;13.720;2022-10-16T08:23:14;3.08;;;1.60;;
34978;SDS011;21185;50.978;13.720;2022-10-16T08:28:16;3.28;;;1.80;;
34978;SDS011;21185;50.978;13.720;2022-10-16T08:33:18;2.58;;;1.42;;
34978;SDS011;21185;50.978;13.720;2022-10-16T08:38:20;1.50;;;0.90;;
34978;SDS011;21185;50.978;13.720;2022-10-16T08:43:31;1.20;;;1.02;;
34978;SDS011;21185;50.978;13.720;2022-10-16T08:48:53;1.77;;;1.08;;
34978;SDS011;21185;50.978;13.720;2022-10-16T08:53:59;1.38;;;0.80;;
34978;SDS011;21185;50.978;13.720;2022-10-16T08:59:04;3.75;;;1.13;;
34978;SDS011;21185;50.978;13.720;2022-10-16T09:04:19;0.85;;;0.55;;
34978;SDS011;21185;50.978;13.720;2022-10-16T09:09:53;1.42;;;0.70;;
34978;SDS011;21185;50.978;13.720;2022-10-16T09:21:19;4.63;;;0.50;;
34978;SDS011;21185;50.978;13.720;2022-10-16T09:26:09;0.60;;;0.50;;
34978;SDS011;21185;50.978;13.720;2022-10-16T09:31:18;0.40;;;0.40;;
34978;SDS011;21185;50.978;13.720;2022-10-16T09:36:23;1.05;;;0.50;;
34978;SDS011;21185;50.978;13.720;2022-10-16T09:41:26;0.38;;;0.35;;
34978;SDS011;21185;50.978;13.720;2022-10-16T09:46:30;0.65;;;0.30;;
34978;SDS011;21185;50.978;13.720;2022-10-16T09:51:36;0.20;;;0.20;;
34978;SDS011;21185;50.978;13.720;2022-10-16T09:56:39;0.65;;;0.50;;
34978;SDS011;21185;50.978;13.720;2022-10-16T10:01:51;0.40;;;0.30;;
34978;SDS011;21185;50.978;13.720;2022-10-16T10:06:55;0.28;;;0.20;;
34978;SDS011;21185;50.978;13.720;2022-10-16T10:11:59;0.88;;;0.70;;
34978;SDS011;21185;50.978;13.720;2022-10-16T10:22:32;1.67;;;0.43;;
34978;SDS011;21185;50.978;13.720;2022-10-16T10:39:00;0.43;;;0.40;;
34978;SDS011;21185;50.978;13.720;2022-10-16T11:00:06;1.25;;;0.30;;
34978;SDS011;21185;50.978;13.720;2022-10-16T11:05:44;2.85;;;0.30;;
34978;SDS011;21185;50.978;13.720;2022-10-16T11:15:58;0.30;;;0.30;;
34978;SDS011;21185;50.978;13.720;2022-10-16T11:21:05;0.13;;;0.13;;
34978;SDS011;21185;50.978;13.720;2022-10-16T11:26:14;0.85;;;0.38;;
34978;SDS011;21185;50.978;13.720;2022-10-16T11:41:56;0.50;;;0.38;;
34978;SDS011;21185;50.978;13.720;2022-10-16T11:47:30;0.35;;;0.20;;
34978;SDS011;21185;50.978;13.720;2022-10-16T11:53:08;4.18;;;0.50;;
34978;SDS011;21185;50.978;13.720;2022-10-16T12:09:22;1.00;;;0.50;;
34978;SDS011;21185;50.978;13.720;2022-10-16T12:14:37;0.70;;;0.22;;
34978;SDS011;21185;50.978;13.720;2022-10-16T12:20:23;0.43;;;0.40;;
34978;SDS011;21185;50.978;13.720;2022-10-16T12:30:34;0.20;;;0.20;;
34978;SDS011;21185;50.978;13.720;2022-10-16T12:35:42;3.33;;;0.40;;
34978;SDS011;21185;50.978;13.720;2022-10-16T12:57:15;0.38;;;0.30;;
34978;SDS011;21185;50.978;13.720;2022-10-16T13:07:50;0.52;;;0.30;;
34978;SDS011;21185;50.978;13.720;2022-10-16T13:29:08;0.32;;;0.20;;
34978;SDS011;21185;50.978;13.720;2022-10-16T13:34:12;0.80;;;0.50;;
34978;SDS011;21185;50.978;13.720;2022-10-16T13:44:28;0.30;;;0.30;;
34978;SDS011;21185;50.978;13.720;2022-10-16T13:49:36;1.83;;;0.50;;
34978;SDS011;21185;50.978;13.720;2022-10-16T13:54:38;1.10;;;0.30;;
34978;SDS011;21185;50.978;13.720;2022-10-16T13:59:40;0.45;;;0.30;;
34978;SDS011;21185;50.978;13.720;2022-10-16T14:04:43;2.55;;;0.35;;
34978;SDS011;21185;50.978;13.720;2022-10-16T14:09:47;0.60;;;0.22;;
34978;SDS011;21185;50.978;13.720;2022-10-16T14:14:52;1.45;;;0.57;;
34978;SDS011;21185;50.978;13.720;2022-10-16T14:19:57;2.40;;;0.30;;
34978;SDS011;21185;50.978;13.720;2022-10-16T14:30:23;0.63;;;0.35;;
34978;SDS011;21185;50.978;13.720;2022-10-16T14:35:26;0.28;;;0.28;;
34978;SDS011;21185;50.978;13.720;2022-10-16T14:40:35;0.45;;;0.30;;
34978;SDS011;21185;50.978;13.720;2022-10-16T14:45:39;1.60;;;0.50;;
34978;SDS011;21185;50.978;13.720;2022-10-16T14:50:43;1.63;;;0.70;;
34978;SDS011;21185;50.978;13.720;2022-10-16T14:55:46;1.00;;;0.40;;
34978;SDS011;21185;50.978;13.720;2022-10-16T15:00:50;1.05;;;0.52;;
34978;SDS011;21185;50.978;13.720;2022-10-16T15:05:52;0.65;;;0.50;;
34978;SDS011;21185;50.978;13.720;2022-10-16T15:10:54;1.17;;;0.57;;
34978;SDS011;21185;50.978;13.720;2022-10-16T15:15:56;1.58;;;0.50;;
34978;SDS011;21185;50.978;13.720;2022-10-16T15:20:57;5.03;;;0.52;;
34978;SDS011;21185;50.978;13.720;2022-10-16T15:25:59;0.95;;;0.40;;
34978;SDS011;21185;50.978;13.720;2022-10-16T15:31:01;0.73;;;0.43;;
34978;SDS011;21185;50.978;13.720;2022-10-16T15:36:06;0.52;;;0.40;;
34978;SDS011;21185;50.978;13.720;2022-10-16T15:41:08;0.80;;;0.30;;
34978;SDS011;21185;50.978;13.720;2022-10-16T15:46:11;0.50;;;0.43;;
34978;SDS011;21185;50.978;13.720;2022-10-16T15:51:16;0.85;;;0.45;;
34978;SDS011;21185;50.978;13.720;2022-10-16T15:56:19;0.40;;;0.40;;
34978;SDS011;21185;50.978;13.720;2022-10-16T16:01:20;1.63;;;0.90;;
34978;SDS011;21185;50.978;13.720;2022-10-16T16:06:23;1.30;;;0.63;;
34978;SDS011;21185;50.978;13.720;2022-10-16T16:11:25;1.27;;;0.60;;
34978;SDS011;21185;50.978;13.720;2022-10-16T16:16:27;2.83;;;1.05;;
34978;SDS011;21185;50.978;13.720;2022-10-16T16:21:29;5.65;;;1.27;;
34978;SDS011;21185;50.978;13.720;2022-10-16T16:26:31;2.72;;;1.15;;
34978;SDS011;21185;50.978;13.720;2022-10-16T16:31:37;2.95;;;0.88;;
34978;SDS011;21185;50.978;13.720;2022-10-16T16:36:39;3.47;;;1.33;;
34978;SDS011;21185;50.978;13.720;2022-10-16T16:41:41;2.30;;;1.30;;
34978;SDS011;21185;50.978;13.720;2022-10-16T16:46:43;7.18;;;3.92;;
34978;SDS011;21185;50.978;13.720;2022-10-16T16:51:46;9.10;;;4.72;;
34978;SDS011;21185;50.978;13.720;2022-10-16T16:56:48;4.43;;;2.25;;
34978;SDS011;21185;50.978;13.720;2022-10-16T17:01:50;4.28;;;2.50;;
34978;SDS011;21185;50.978;13.720;2022-10-16T17:11:59;9.73;;;2.30;;
34978;SDS011;21185;50.978;13.720;2022-10-16T17:17:01;3.00;;;1.90;;
34978;SDS011;21185;50.978;13.720;2022-10-16T17:22:03;3.00;;;2.05;;
34978;SDS011;21185;50.978;13.720;2022-10-16T17:27:05;3.80;;;1.73;;
34978;SDS011;21185;50.978;13.720;2022-10-16T17:32:07;3.67;;;2.30;;
34978;SDS011;21185;50.978;13.720;2022-10-16T17:37:09;3.38;;;2.03;;
34978;SDS011;21185;50.978;13.720;2022-10-16T17:42:19;7.18;;;2.55;;
34978;SDS011;21185;50.978;13.720;2022-10-16T17:47:21;4.07;;;2.22;;
34978;SDS011;21185;50.978;13.720;2022-10-16T17:52:23;3.28;;;2.05;;
34978;SDS011;21185;50.978;13.720;2022-10-16T17:57:25;4.03;;;1.65;;
34978;SDS011;21185;50.978;13.720;2022-10-16T18:02:27;3.35;;;1.92;;
34978;SDS011;21185;50.978;13.720;2022-10-16T18:07:30;2.60;;;1.50;;
34978;SDS011;21185;50.978;13.720;2022-10-16T18:12:32;3.53;;;1.27;;
34978;SDS011;21185;50.978;13.720;2022-10-16T18:17:34;4.35;;;1.27;;
34978;SDS011;21185;50.978;13.720;2022-10-16T18:22:39;1.48;;;0.82;;
34978;SDS011;21185;50.978;13.720;2022-10-16T18:27:41;2.33;;;1.25;;
34978;SDS011;21185;50.978;13.720;2022-10-16T18:32:43;1.27;;;0.70;;
34978;SDS011;21185;50.978;13.720;2022-10-16T18:37:45;1.40;;;0.90;;
34978;SDS011;21185;50.978;13.720;2022-10-16T18:42:46;1.08;;;0.82;;
34978;SDS011;21185;50.978;13.720;2022-10-16T18:47:50;2.38;;;1.10;;
34978;SDS011;21185;50.978;13.720;2022-10-16T18:52:52;4.15;;;1.20;;
34978;SDS011;21185;50.978;13.720;2022-10-16T18:57:57;1.98;;;0.98;;
34978;SDS011;21185;50.978;13.720;2022-10-16T19:02:59;2.75;;;1.00;;
34978;SDS011;21185;50.978;13.720;2022-10-16T19:08:01;2.10;;;0.90;;
34978;SDS011;21185;50.978;13.720;2022-10-16T19:13:03;2.28;;;1.20;;
34978;SDS011;21185;50.978;13.720;2022-10-16T19:18:10;1.98;;;1.20;;
34978;SDS011;21185;50.978;13.720;2022-10-16T19:23:12;3.42;;;1.50;;
34978;SDS011;21185;50.978;13.720;2022-10-16T19:28:14;2.10;;;1.50;;
34978;SDS011;21185;50.978;13.720;2022-10-16T19:33:16;2.83;;;1.63;;
34978;SDS011;21185;50.978;13.720;2022-10-16T19:38:18;3.00;;;1.95;;
34978;SDS011;21185;50.978;13.720;2022-10-16T19:43:21;4.80;;;2.38;;
34978;SDS011;21185;50.978;13.720;2022-10-16T19:48:23;2.20;;;1.45;;
34978;SDS011;21185;50.978;13.720;2022-10-16T19:53:25;3.35;;;1.75;;
34978;SDS011;21185;50.978;13.720;2022-10-16T19:58:29;3.80;;;1.88;;
34978;SDS011;21185;50.978;13.720;2022-10-16T20:03:30;5.45;;;1.58;;
34978;SDS011;21185;50.978;13.720;2022-10-16T20:08:33;8.20;;;1.85;;
34978;SDS011;21185;50.978;13.720;2022-10-16T20:13:36;3.53;;;1.83;;
34978;SDS011;21185;50.978;13.720;2022-10-16T20:18:43;2.67;;;1.47;;
34978;SDS011;21185;50.978;13.720;2022-10-16T20:23:46;5.50;;;2.75;;
34978;SDS011;21185;50.978;13.720;2022-10-16T20:28:49;5.55;;;2.05;;
34978;SDS011;21185;50.978;13.720;2022-10-16T20:33:53;1.80;;;1.30;;
34978;SDS011;21185;50.978;13.720;2022-10-16T20:38:56;2.35;;;1.42;;
34978;SDS011;21185;50.978;13.720;2022-10-16T20:43:58;2.92;;;1.10;;
34978;SDS011;21185;50.978;13.720;2022-10-16T20:49:00;1.83;;;1.10;;
34978;SDS011;21185;50.978;13.720;2022-10-16T20:54:16;1.90;;;1.13;;
34978;SDS011;21185;50.978;13.720;2022-10-16T20:59:18;2.60;;;1.10;;
34978;SDS011;21185;50.978;13.720;2022-10-16T21:04:20;1.50;;;1.10;;
34978;SDS011;21185;50.978;13.720;2022-10-16T21:09:22;3.63;;;1.30;;
34978;SDS011;21185;50.978;13.720;2022-10-16T21:14:25;1.33;;;0.90;;
34978;SDS011;21185;50.978;13.720;2022-10-16T21:19:28;2.58;;;1.00;;
34978;SDS011;21185;50.978;13.720;2022-10-16T21:24:31;1.05;;;0.75;;
34978;SDS011;21185;50.978;13.720;2022-10-16T21:29:33;1.25;;;0.85;;
34978;SDS011;21185;50.978;13.720;2022-10-16T21:34:36;1.63;;;1.08;;
34978;SDS011;21185;50.978;13.720;2022-10-16T21:39:38;2.15;;;0.93;;
34978;SDS011;21185;50.978;13.720;2022-10-16T21:44:40;3.10;;;0.80;;
34978;SDS011;21185;50.978;13.720;2022-10-16T21:49:42;1.13;;;0.75;;
34978;SDS011;21185;50.978;13.720;2022-10-16T21:54:43;1.25;;;0.77;;
34978;SDS011;21185;50.978;13.720;2022-10-16T21:59:45;1.30;;;0.77;;
34978;SDS011;21185;50.978;13.720;2022-10-16T22:04:50;1.42;;;0.98;;
34978;SDS011;21185;50.978;13.720;2022-10-16T22:09:52;3.25;;;1.45;;
34978;SDS011;21185;50.978;13.720;2022-10-16T22:14:54;1.98;;;1.02;;
34978;SDS011;21185;50.978;13.720;2022-10-16T22:19:55;1.08;;;0.75;;
34978;SDS011;21185;50.978;13.720;2022-10-16T22:24:57;0.85;;;0.63;;
34978;SDS011;21185;50.978;13.720;2022-10-16T22:29:59;1.02;;;0.80;;
34978;SDS011;21185;50.978;13.720;2022-10-16T22:35:01;3.50;;;1.02;;
34978;SDS011;21185;50.978;13.720;2022-10-16T22:40:03;2.40;;;1.00;;
34978;SDS011;21185;50.978;13.720;2022-10-16T22:45:05;1.77;;;1.05;;
34978;SDS011;21185;50.978;13.720;2022-10-16T22:50:08;1.42;;;0.73;;
34978;SDS011;21185;50.978;13.720;2022-10-16T22:55:10;1.35;;;1.08;;
34978;SDS011;21185;50.978;13.720;2022-10-16T23:00:13;1.58;;;1.00;;
34978;SDS011;21185;50.978;13.720;2022-10-16T23:05:17;3.33;;;1.30;;
34978;SDS011;21185;50.978;13.720;2022-10-16T23:10:19;1.83;;;0.93;;
34978;SDS011;21185;50.978;13.720;2022-10-16T23:15:25;1.63;;;1.00;;
34978;SDS011;21185;50.978;13.720;2022-10-16T23:20:27;1.05;;;0.90;;
34978;SDS011;21185;50.978;13.720;2022-10-16T23:25:29;2.17;;;0.95;;
34978;SDS011;21185;50.978;13.720;2022-10-16T23:30:30;2.08;;;1.00;;
34978;SDS011;21185;50.978;13.720;2022-10-16T23:35:32;2.90;;;1.00;;
34978;SDS011;21185;50.978;13.720;2022-10-16T23:40:34;1.20;;;0.82;;
34978;SDS011;21185;50.978;13.720;2022-10-16T23:45:36;2.50;;;1.00;;
34978;SDS011;21185;50.978;13.720;2022-10-16T23:50:38;2.53;;;1.17;;
34978;SDS011;21185;50.978;13.720;2022-10-16T23:55:40;4.82;;;1.40;;
